sensor_id;sensor_type;location;lat;lon;timestamp;P1;durP1;ratioP1;P2;durP2;ratioP2
62509;SDS011;48558;48.242;11.654;2023-07-24T00:00:22;7.57;;;5.55;;
62509;SDS011;48558;48.242;11.654;2023-07-24T00:04:36;9.25;;;5.93;;
62509;SDS011;48558;48.242;11.654;2023-07-24T00:08:49;12.75;;;5.88;;
62509;SDS011;48558;48.242;11.654;2023-07-24T00:13:02;11.63;;;6.30;;
62509;SDS011;48558;48.242;11.654;2023-07-24T00:17:15;12.40;;;6.68;;
62509;SDS011;48558;48.242;11.654;2023-07-24T00:21:28;9.68;;;6.68;;
62509;SDS011;48558;48.242;11.654;2023-07-24T00:25:40;9.18;;;5.78;;
62509;SDS011;48558;48.242;11.654;2023-07-24T00:29:53;8.82;;;5.68;;
62509;SDS011;48558;48.242;11.654;2023-07-24T00:34:05;12.18;;;6.78;;
62509;SDS011;48558;48.242;11.654;2023-07-24T00:38:18;13.38;;;6.38;;
62509;SDS011;48558;48.242;11.654;2023-07-24T00:42:30;9.73;;;6.00;;
62509;SDS011;48558;48.242;11.654;2023-07-24T00:46:43;14.65;;;6.82;;
62509;SDS011;48558;48.242;11.654;2023-07-24T00:50:56;9.32;;;5.93;;
62509;SDS011;48558;48.242;11.654;2023-07-24T00:55:09;10.35;;;6.10;;
62509;SDS011;48558;48.242;11.654;2023-07-24T00:59:25;10.27;;;6.80;;
62509;SDS011;48558;48.242;11.654;2023-07-24T01:03:38;9.32;;;6.28;;
62509;SDS011;48558;48.242;11.654;2023-07-24T01:07:51;8.40;;;5.72;;
62509;SDS011;48558;48.242;11.654;2023-07-24T01:16:36;9.68;;;6.75;;
62509;SDS011;48558;48.242;11.654;2023-07-24T01:29:43;11.95;;;8.35;;
62509;SDS011;48558;48.242;11.654;2023-07-24T01:33:55;8.60;;;5.10;;
62509;SDS011;48558;48.242;11.654;2023-07-24T01:38:08;9.43;;;5.63;;
62509;SDS011;48558;48.242;11.654;2023-07-24T01:42:21;8.95;;;6.18;;
62509;SDS011;48558;48.242;11.654;2023-07-24T01:46:35;10.82;;;6.28;;
62509;SDS011;48558;48.242;11.654;2023-07-24T01:50:48;14.63;;;6.28;;
62509;SDS011;48558;48.242;11.654;2023-07-24T01:55:00;10.80;;;6.50;;
62509;SDS011;48558;48.242;11.654;2023-07-24T01:59:13;10.48;;;6.05;;
62509;SDS011;48558;48.242;11.654;2023-07-24T02:03:26;8.90;;;5.88;;
62509;SDS011;48558;48.242;11.654;2023-07-24T02:07:39;12.25;;;6.18;;
62509;SDS011;48558;48.242;11.654;2023-07-24T02:11:51;11.43;;;6.57;;
62509;SDS011;48558;48.242;11.654;2023-07-24T02:16:04;8.45;;;6.50;;
62509;SDS011;48558;48.242;11.654;2023-07-24T02:20:17;9.43;;;6.53;;
62509;SDS011;48558;48.242;11.654;2023-07-24T02:24:29;9.85;;;5.72;;
62509;SDS011;48558;48.242;11.654;2023-07-24T02:28:42;9.90;;;6.13;;
62509;SDS011;48558;48.242;11.654;2023-07-24T02:32:54;8.55;;;5.68;;
62509;SDS011;48558;48.242;11.654;2023-07-24T02:37:09;7.85;;;5.03;;
62509;SDS011;48558;48.242;11.654;2023-07-24T02:41:21;11.13;;;5.55;;
62509;SDS011;48558;48.242;11.654;2023-07-24T02:45:34;7.72;;;5.00;;
62509;SDS011;48558;48.242;11.654;2023-07-24T02:49:47;9.52;;;5.22;;
62509;SDS011;48558;48.242;11.654;2023-07-24T02:53:59;7.80;;;4.63;;
62509;SDS011;48558;48.242;11.654;2023-07-24T02:58:12;8.57;;;5.07;;
62509;SDS011;48558;48.242;11.654;2023-07-24T03:02:25;6.35;;;4.70;;
62509;SDS011;48558;48.242;11.654;2023-07-24T03:06:39;6.57;;;5.28;;
62509;SDS011;48558;48.242;11.654;2023-07-24T03:10:52;10.23;;;5.40;;
62509;SDS011;48558;48.242;11.654;2023-07-24T03:15:04;6.82;;;5.47;;
62509;SDS011;48558;48.242;11.654;2023-07-24T03:19:18;12.55;;;6.25;;
62509;SDS011;48558;48.242;11.654;2023-07-24T03:23:32;9.63;;;4.93;;
62509;SDS011;48558;48.242;11.654;2023-07-24T03:27:44;13.45;;;6.13;;
62509;SDS011;48558;48.242;11.654;2023-07-24T03:31:57;11.80;;;6.72;;
62509;SDS011;48558;48.242;11.654;2023-07-24T03:36:09;11.13;;;6.63;;
62509;SDS011;48558;48.242;11.654;2023-07-24T03:40:22;7.47;;;5.10;;
62509;SDS011;48558;48.242;11.654;2023-07-24T03:44:35;9.10;;;5.93;;
62509;SDS011;48558;48.242;11.654;2023-07-24T03:48:47;9.45;;;5.65;;
62509;SDS011;48558;48.242;11.654;2023-07-24T03:53:02;9.50;;;5.47;;
62509;SDS011;48558;48.242;11.654;2023-07-24T03:57:15;12.07;;;5.95;;
62509;SDS011;48558;48.242;11.654;2023-07-24T04:01:27;8.55;;;5.72;;
62509;SDS011;48558;48.242;11.654;2023-07-24T04:05:40;9.43;;;5.57;;
62509;SDS011;48558;48.242;11.654;2023-07-24T04:09:52;10.23;;;6.30;;
62509;SDS011;48558;48.242;11.654;2023-07-24T04:14:05;8.07;;;6.03;;
62509;SDS011;48558;48.242;11.654;2023-07-24T04:18:17;10.90;;;6.10;;
62509;SDS011;48558;48.242;11.654;2023-07-24T04:22:30;8.77;;;5.47;;
62509;SDS011;48558;48.242;11.654;2023-07-24T04:26:42;9.32;;;6.40;;
62509;SDS011;48558;48.242;11.654;2023-07-24T04:30:59;13.60;;;6.28;;
62509;SDS011;48558;48.242;11.654;2023-07-24T04:35:13;11.57;;;6.32;;
62509;SDS011;48558;48.242;11.654;2023-07-24T04:39:26;10.05;;;6.43;;
62509;SDS011;48558;48.242;11.654;2023-07-24T04:43:38;8.90;;;5.95;;
62509;SDS011;48558;48.242;11.654;2023-07-24T04:47:51;10.10;;;6.47;;
62509;SDS011;48558;48.242;11.654;2023-07-24T04:52:04;10.43;;;6.40;;
62509;SDS011;48558;48.242;11.654;2023-07-24T04:56:16;7.53;;;5.93;;
62509;SDS011;48558;48.242;11.654;2023-07-24T05:00:29;9.13;;;6.47;;
62509;SDS011;48558;48.242;11.654;2023-07-24T05:04:42;16.27;;;5.88;;
62509;SDS011;48558;48.242;11.654;2023-07-24T05:08:54;10.90;;;6.90;;
62509;SDS011;48558;48.242;11.654;2023-07-24T05:13:07;9.32;;;6.22;;
62509;SDS011;48558;48.242;11.654;2023-07-24T05:17:23;8.80;;;5.88;;
62509;SDS011;48558;48.242;11.654;2023-07-24T05:21:36;10.93;;;6.18;;
62509;SDS011;48558;48.242;11.654;2023-07-24T05:25:56;8.25;;;5.80;;
62509;SDS011;48558;48.242;11.654;2023-07-24T05:30:12;8.85;;;5.85;;
62509;SDS011;48558;48.242;11.654;2023-07-24T05:34:25;10.68;;;6.38;;
62509;SDS011;48558;48.242;11.654;2023-07-24T05:38:38;9.70;;;6.82;;
62509;SDS011;48558;48.242;11.654;2023-07-24T05:42:50;11.02;;;6.43;;
62509;SDS011;48558;48.242;11.654;2023-07-24T05:47:03;8.13;;;6.45;;
62509;SDS011;48558;48.242;11.654;2023-07-24T05:51:15;10.55;;;6.80;;
62509;SDS011;48558;48.242;11.654;2023-07-24T05:55:28;10.88;;;6.40;;
62509;SDS011;48558;48.242;11.654;2023-07-24T05:59:41;9.90;;;6.65;;
62509;SDS011;48558;48.242;11.654;2023-07-24T06:03:53;8.52;;;5.95;;
62509;SDS011;48558;48.242;11.654;2023-07-24T06:08:06;8.73;;;5.88;;
62509;SDS011;48558;48.242;11.654;2023-07-24T06:12:21;8.55;;;5.75;;
62509;SDS011;48558;48.242;11.654;2023-07-24T06:16:34;10.40;;;5.82;;
62509;SDS011;48558;48.242;11.654;2023-07-24T06:20:47;9.25;;;5.97;;
62509;SDS011;48558;48.242;11.654;2023-07-24T06:25:04;10.52;;;5.82;;
62509;SDS011;48558;48.242;11.654;2023-07-24T06:29:17;12.30;;;5.80;;
62509;SDS011;48558;48.242;11.654;2023-07-24T06:33:30;9.57;;;5.90;;
62509;SDS011;48558;48.242;11.654;2023-07-24T06:37:43;11.98;;;5.78;;
62509;SDS011;48558;48.242;11.654;2023-07-24T06:41:55;6.30;;;5.30;;
62509;SDS011;48558;48.242;11.654;2023-07-24T06:46:08;6.32;;;4.97;;
62509;SDS011;48558;48.242;11.654;2023-07-24T06:50:21;7.47;;;5.72;;
62509;SDS011;48558;48.242;11.654;2023-07-24T06:54:33;9.90;;;5.55;;
62509;SDS011;48558;48.242;11.654;2023-07-24T06:58:46;8.38;;;5.15;;
62509;SDS011;48558;48.242;11.654;2023-07-24T07:02:58;7.95;;;5.82;;
62509;SDS011;48558;48.242;11.654;2023-07-24T07:07:11;7.90;;;5.63;;
62509;SDS011;48558;48.242;11.654;2023-07-24T07:11:24;7.28;;;5.30;;
62509;SDS011;48558;48.242;11.654;2023-07-24T07:15:36;7.97;;;5.70;;
62509;SDS011;48558;48.242;11.654;2023-07-24T07:19:49;9.13;;;5.85;;
62509;SDS011;48558;48.242;11.654;2023-07-24T07:24:01;7.05;;;5.20;;
62509;SDS011;48558;48.242;11.654;2023-07-24T07:28:14;7.45;;;5.47;;
62509;SDS011;48558;48.242;11.654;2023-07-24T07:32:28;11.00;;;5.80;;
62509;SDS011;48558;48.242;11.654;2023-07-24T07:36:40;6.60;;;5.25;;
62509;SDS011;48558;48.242;11.654;2023-07-24T07:40:53;6.22;;;4.38;;
62509;SDS011;48558;48.242;11.654;2023-07-24T07:45:05;6.85;;;4.65;;
62509;SDS011;48558;48.242;11.654;2023-07-24T07:49:18;10.00;;;5.15;;
62509;SDS011;48558;48.242;11.654;2023-07-24T07:53:31;8.15;;;4.78;;
62509;SDS011;48558;48.242;11.654;2023-07-24T07:57:44;7.88;;;4.72;;
62509;SDS011;48558;48.242;11.654;2023-07-24T08:01:56;9.48;;;5.35;;
62509;SDS011;48558;48.242;11.654;2023-07-24T08:06:09;7.80;;;5.47;;
62509;SDS011;48558;48.242;11.654;2023-07-24T08:10:22;6.95;;;5.38;;
62509;SDS011;48558;48.242;11.654;2023-07-24T08:14:34;10.43;;;6.13;;
62509;SDS011;48558;48.242;11.654;2023-07-24T08:18:47;7.80;;;5.75;;
62509;SDS011;48558;48.242;11.654;2023-07-24T08:23:00;7.30;;;5.25;;
62509;SDS011;48558;48.242;11.654;2023-07-24T08:27:13;6.70;;;5.03;;
62509;SDS011;48558;48.242;11.654;2023-07-24T08:31:25;8.35;;;5.47;;
62509;SDS011;48558;48.242;11.654;2023-07-24T08:35:38;5.95;;;4.22;;
62509;SDS011;48558;48.242;11.654;2023-07-24T08:39:51;5.88;;;4.22;;
62509;SDS011;48558;48.242;11.654;2023-07-24T08:44:09;7.72;;;4.43;;
62509;SDS011;48558;48.242;11.654;2023-07-24T08:48:22;7.03;;;4.50;;
62509;SDS011;48558;48.242;11.654;2023-07-24T08:52:35;6.20;;;4.75;;
62509;SDS011;48558;48.242;11.654;2023-07-24T08:56:48;7.57;;;5.05;;
62509;SDS011;48558;48.242;11.654;2023-07-24T09:01:02;8.43;;;4.57;;
62509;SDS011;48558;48.242;11.654;2023-07-24T09:05:16;8.07;;;4.93;;
62509;SDS011;48558;48.242;11.654;2023-07-24T09:09:29;5.32;;;4.13;;
62509;SDS011;48558;48.242;11.654;2023-07-24T09:13:45;6.25;;;4.68;;
62509;SDS011;48558;48.242;11.654;2023-07-24T09:17:57;8.95;;;4.68;;
62509;SDS011;48558;48.242;11.654;2023-07-24T09:22:19;6.05;;;4.47;;
62509;SDS011;48558;48.242;11.654;2023-07-24T09:26:33;6.32;;;4.43;;
62509;SDS011;48558;48.242;11.654;2023-07-24T09:30:56;6.15;;;4.60;;
62509;SDS011;48558;48.242;11.654;2023-07-24T09:35:17;4.75;;;3.95;;
62509;SDS011;48558;48.242;11.654;2023-07-24T09:39:30;5.90;;;4.32;;
62509;SDS011;48558;48.242;11.654;2023-07-24T09:43:43;5.22;;;4.07;;
62509;SDS011;48558;48.242;11.654;2023-07-24T09:47:55;6.90;;;4.47;;
62509;SDS011;48558;48.242;11.654;2023-07-24T09:52:19;5.40;;;4.13;;
62509;SDS011;48558;48.242;11.654;2023-07-24T09:56:32;7.25;;;4.40;;
62509;SDS011;48558;48.242;11.654;2023-07-24T10:01:02;5.60;;;4.68;;
62509;SDS011;48558;48.242;11.654;2023-07-24T10:05:19;5.85;;;4.03;;
62509;SDS011;48558;48.242;11.654;2023-07-24T10:09:33;5.68;;;4.03;;
62509;SDS011;48558;48.242;11.654;2023-07-24T10:13:45;6.38;;;4.18;;
62509;SDS011;48558;48.242;11.654;2023-07-24T10:18:05;5.00;;;3.80;;
62509;SDS011;48558;48.242;11.654;2023-07-24T10:22:19;4.50;;;3.90;;
62509;SDS011;48558;48.242;11.654;2023-07-24T10:26:36;7.25;;;3.95;;
62509;SDS011;48558;48.242;11.654;2023-07-24T10:30:54;5.00;;;3.75;;
62509;SDS011;48558;48.242;11.654;2023-07-24T10:35:09;5.75;;;3.95;;
62509;SDS011;48558;48.242;11.654;2023-07-24T10:39:21;4.75;;;3.67;;
62509;SDS011;48558;48.242;11.654;2023-07-24T10:43:47;5.05;;;3.60;;
62509;SDS011;48558;48.242;11.654;2023-07-24T10:48:02;4.20;;;3.47;;
62509;SDS011;48558;48.242;11.654;2023-07-24T10:52:16;4.13;;;3.20;;
62509;SDS011;48558;48.242;11.654;2023-07-24T10:56:29;5.80;;;3.67;;
62509;SDS011;48558;48.242;11.654;2023-07-24T11:00:42;3.83;;;3.28;;
62509;SDS011;48558;48.242;11.654;2023-07-24T11:04:58;3.85;;;3.30;;
62509;SDS011;48558;48.242;11.654;2023-07-24T11:09:12;4.68;;;3.50;;
62509;SDS011;48558;48.242;11.654;2023-07-24T11:13:26;4.97;;;2.92;;
62509;SDS011;48558;48.242;11.654;2023-07-24T11:17:40;3.50;;;3.20;;
62509;SDS011;48558;48.242;11.654;2023-07-24T11:21:55;3.63;;;3.33;;
62509;SDS011;48558;48.242;11.654;2023-07-24T11:26:10;3.88;;;3.58;;
62509;SDS011;48558;48.242;11.654;2023-07-24T11:30:23;3.85;;;3.38;;
62509;SDS011;48558;48.242;11.654;2023-07-24T11:34:37;2.78;;;2.58;;
62509;SDS011;48558;48.242;11.654;2023-07-24T11:38:51;5.18;;;2.92;;
62509;SDS011;48558;48.242;11.654;2023-07-24T11:43:04;4.22;;;2.90;;
62509;SDS011;48558;48.242;11.654;2023-07-24T11:47:26;4.47;;;3.25;;
62509;SDS011;48558;48.242;11.654;2023-07-24T11:51:39;3.08;;;2.88;;
62509;SDS011;48558;48.242;11.654;2023-07-24T11:55:54;3.17;;;2.88;;
62509;SDS011;48558;48.242;11.654;2023-07-24T12:00:19;3.00;;;2.65;;
62509;SDS011;48558;48.242;11.654;2023-07-24T12:04:33;3.03;;;2.83;;
62509;SDS011;48558;48.242;11.654;2023-07-24T12:08:46;3.35;;;3.03;;
62509;SDS011;48558;48.242;11.654;2023-07-24T12:12:59;5.13;;;3.30;;
62509;SDS011;48558;48.242;11.654;2023-07-24T12:17:17;4.15;;;3.05;;
62509;SDS011;48558;48.242;11.654;2023-07-24T12:21:31;3.83;;;3.13;;
62509;SDS011;48558;48.242;11.654;2023-07-24T12:25:45;3.58;;;3.00;;
62509;SDS011;48558;48.242;11.654;2023-07-24T12:29:57;3.47;;;2.97;;
62509;SDS011;48558;48.242;11.654;2023-07-24T12:34:10;6.65;;;3.60;;
62509;SDS011;48558;48.242;11.654;2023-07-24T12:38:23;7.50;;;3.05;;
62509;SDS011;48558;48.242;11.654;2023-07-24T12:42:36;4.63;;;3.75;;
62509;SDS011;48558;48.242;11.654;2023-07-24T12:46:48;3.72;;;3.42;;
62509;SDS011;48558;48.242;11.654;2023-07-24T12:51:01;4.03;;;3.63;;
62509;SDS011;48558;48.242;11.654;2023-07-24T12:55:15;4.43;;;3.30;;
62509;SDS011;48558;48.242;11.654;2023-07-24T12:59:29;5.72;;;4.25;;
62509;SDS011;48558;48.242;11.654;2023-07-24T13:03:41;3.83;;;3.30;;
62509;SDS011;48558;48.242;11.654;2023-07-24T13:07:54;5.88;;;4.80;;
62509;SDS011;48558;48.242;11.654;2023-07-24T13:12:07;6.07;;;3.30;;
62509;SDS011;48558;48.242;11.654;2023-07-24T13:16:21;5.57;;;3.53;;
62509;SDS011;48558;48.242;11.654;2023-07-24T13:20:34;3.78;;;3.15;;
62509;SDS011;48558;48.242;11.654;2023-07-24T13:24:46;4.03;;;3.60;;
62509;SDS011;48558;48.242;11.654;2023-07-24T13:28:59;3.17;;;2.88;;
62509;SDS011;48558;48.242;11.654;2023-07-24T13:33:11;4.30;;;3.10;;
62509;SDS011;48558;48.242;11.654;2023-07-24T13:37:24;5.60;;;3.20;;
62509;SDS011;48558;48.242;11.654;2023-07-24T13:41:37;5.00;;;3.30;;
62509;SDS011;48558;48.242;11.654;2023-07-24T13:45:50;5.72;;;3.53;;
62509;SDS011;48558;48.242;11.654;2023-07-24T13:50:02;4.50;;;3.47;;
62509;SDS011;48558;48.242;11.654;2023-07-24T13:54:15;4.20;;;3.15;;
62509;SDS011;48558;48.242;11.654;2023-07-24T13:58:28;5.05;;;3.28;;
62509;SDS011;48558;48.242;11.654;2023-07-24T14:02:40;3.45;;;2.95;;
62509;SDS011;48558;48.242;11.654;2023-07-24T14:06:53;4.03;;;3.10;;
62509;SDS011;48558;48.242;11.654;2023-07-24T14:11:06;3.60;;;3.28;;
62509;SDS011;48558;48.242;11.654;2023-07-24T14:15:18;6.18;;;3.58;;
62509;SDS011;48558;48.242;11.654;2023-07-24T14:19:31;5.45;;;3.30;;
62509;SDS011;48558;48.242;11.654;2023-07-24T14:23:43;3.90;;;3.25;;
62509;SDS011;48558;48.242;11.654;2023-07-24T14:27:57;4.97;;;3.55;;
62509;SDS011;48558;48.242;11.654;2023-07-24T14:32:09;3.42;;;3.13;;
62509;SDS011;48558;48.242;11.654;2023-07-24T14:36:22;3.75;;;2.83;;
62509;SDS011;48558;48.242;11.654;2023-07-24T14:40:35;3.70;;;2.78;;
62509;SDS011;48558;48.242;11.654;2023-07-24T14:44:48;3.58;;;2.60;;
62509;SDS011;48558;48.242;11.654;2023-07-24T14:49:00;2.60;;;2.40;;
62509;SDS011;48558;48.242;11.654;2023-07-24T14:53:13;4.43;;;2.80;;
62509;SDS011;48558;48.242;11.654;2023-07-24T14:57:26;3.70;;;2.67;;
62509;SDS011;48558;48.242;11.654;2023-07-24T15:01:39;3.20;;;2.30;;
62509;SDS011;48558;48.242;11.654;2023-07-24T15:05:52;4.40;;;2.35;;
62509;SDS011;48558;48.242;11.654;2023-07-24T15:10:06;2.42;;;2.22;;
62509;SDS011;48558;48.242;11.654;2023-07-24T15:14:21;6.03;;;2.42;;
62509;SDS011;48558;48.242;11.654;2023-07-24T15:18:33;2.80;;;2.60;;
62509;SDS011;48558;48.242;11.654;2023-07-24T15:22:47;2.80;;;2.50;;
62509;SDS011;48558;48.242;11.654;2023-07-24T15:27:00;4.13;;;2.40;;
62509;SDS011;48558;48.242;11.654;2023-07-24T15:31:21;2.83;;;2.58;;
62509;SDS011;48558;48.242;11.654;2023-07-24T15:35:34;2.85;;;2.55;;
62509;SDS011;48558;48.242;11.654;2023-07-24T15:39:47;2.53;;;2.33;;
62509;SDS011;48558;48.242;11.654;2023-07-24T15:44:00;3.20;;;2.90;;
62509;SDS011;48558;48.242;11.654;2023-07-24T15:48:14;4.95;;;2.53;;
62509;SDS011;48558;48.242;11.654;2023-07-24T15:52:35;4.07;;;2.45;;
62509;SDS011;48558;48.242;11.654;2023-07-24T15:56:48;5.00;;;2.10;;
62509;SDS011;48558;48.242;11.654;2023-07-24T16:01:00;2.35;;;2.20;;
62509;SDS011;48558;48.242;11.654;2023-07-24T16:05:20;2.20;;;2.00;;
62509;SDS011;48558;48.242;11.654;2023-07-24T16:09:34;1.95;;;1.85;;
62509;SDS011;48558;48.242;11.654;2023-07-24T16:13:46;2.40;;;2.20;;
62509;SDS011;48558;48.242;11.654;2023-07-24T16:17:59;2.15;;;1.98;;
62509;SDS011;48558;48.242;11.654;2023-07-24T16:22:14;1.70;;;1.60;;
62509;SDS011;48558;48.242;11.654;2023-07-24T16:26:27;1.58;;;1.48;;
62509;SDS011;48558;48.242;11.654;2023-07-24T16:30:40;1.55;;;1.45;;
62509;SDS011;48558;48.242;11.654;2023-07-24T16:34:52;2.08;;;1.90;;
62509;SDS011;48558;48.242;11.654;2023-07-24T16:39:05;2.00;;;1.80;;
62509;SDS011;48558;48.242;11.654;2023-07-24T16:43:18;2.95;;;1.80;;
62509;SDS011;48558;48.242;11.654;2023-07-24T16:47:30;1.80;;;1.63;;
62509;SDS011;48558;48.242;11.654;2023-07-24T16:51:43;2.00;;;1.67;;
62509;SDS011;48558;48.242;11.654;2023-07-24T16:55:55;2.63;;;1.77;;
62509;SDS011;48558;48.242;11.654;2023-07-24T17:00:08;2.15;;;1.80;;
62509;SDS011;48558;48.242;11.654;2023-07-24T17:04:21;2.33;;;1.80;;
62509;SDS011;48558;48.242;11.654;2023-07-24T17:08:34;3.00;;;1.90;;
62509;SDS011;48558;48.242;11.654;2023-07-24T17:12:46;2.00;;;1.77;;
62509;SDS011;48558;48.242;11.654;2023-07-24T17:16:59;2.30;;;2.10;;
62509;SDS011;48558;48.242;11.654;2023-07-24T17:21:12;2.50;;;1.90;;
62509;SDS011;48558;48.242;11.654;2023-07-24T17:25:24;3.80;;;2.05;;
62509;SDS011;48558;48.242;11.654;2023-07-24T17:29:37;2.25;;;1.70;;
62509;SDS011;48558;48.242;11.654;2023-07-24T17:33:50;2.53;;;2.00;;
62509;SDS011;48558;48.242;11.654;2023-07-24T17:38:02;1.83;;;1.73;;
62509;SDS011;48558;48.242;11.654;2023-07-24T17:42:15;1.73;;;1.63;;
62509;SDS011;48558;48.242;11.654;2023-07-24T17:46:27;2.17;;;1.95;;
62509;SDS011;48558;48.242;11.654;2023-07-24T17:50:40;3.13;;;1.77;;
62509;SDS011;48558;48.242;11.654;2023-07-24T17:54:52;2.63;;;2.30;;
62509;SDS011;48558;48.242;11.654;2023-07-24T17:59:05;2.08;;;1.90;;
62509;SDS011;48558;48.242;11.654;2023-07-24T18:03:17;2.90;;;2.15;;
62509;SDS011;48558;48.242;11.654;2023-07-24T18:07:30;2.80;;;2.30;;
62509;SDS011;48558;48.242;11.654;2023-07-24T18:11:43;5.88;;;2.33;;
62509;SDS011;48558;48.242;11.654;2023-07-24T18:15:55;2.40;;;2.20;;
62509;SDS011;48558;48.242;11.654;2023-07-24T18:20:08;4.18;;;2.72;;
62509;SDS011;48558;48.242;11.654;2023-07-24T18:24:20;5.30;;;2.47;;
62509;SDS011;48558;48.242;11.654;2023-07-24T18:28:33;5.80;;;2.08;;
62509;SDS011;48558;48.242;11.654;2023-07-24T18:32:46;3.50;;;2.38;;
62509;SDS011;48558;48.242;11.654;2023-07-24T18:36:58;2.60;;;2.40;;
62509;SDS011;48558;48.242;11.654;2023-07-24T18:41:11;15.88;;;2.90;;
62509;SDS011;48558;48.242;11.654;2023-07-24T18:45:23;6.55;;;2.85;;
62509;SDS011;48558;48.242;11.654;2023-07-24T18:49:36;5.18;;;3.00;;
62509;SDS011;48558;48.242;11.654;2023-07-24T18:53:49;3.03;;;2.65;;
62509;SDS011;48558;48.242;11.654;2023-07-24T18:58:04;3.15;;;2.70;;
62509;SDS011;48558;48.242;11.654;2023-07-24T19:02:16;5.35;;;2.58;;
62509;SDS011;48558;48.242;11.654;2023-07-24T19:06:29;3.40;;;3.10;;
62509;SDS011;48558;48.242;11.654;2023-07-24T19:10:42;4.45;;;2.92;;
62509;SDS011;48558;48.242;11.654;2023-07-24T19:14:55;4.57;;;2.97;;
62509;SDS011;48558;48.242;11.654;2023-07-24T19:19:07;6.55;;;3.30;;
62509;SDS011;48558;48.242;11.654;2023-07-24T19:23:20;4.03;;;2.67;;
62509;SDS011;48558;48.242;11.654;2023-07-24T19:27:33;3.28;;;2.97;;
62509;SDS011;48558;48.242;11.654;2023-07-24T19:31:45;4.35;;;3.30;;
62509;SDS011;48558;48.242;11.654;2023-07-24T19:35:59;8.45;;;3.60;;
62509;SDS011;48558;48.242;11.654;2023-07-24T19:40:13;4.65;;;3.67;;
62509;SDS011;48558;48.242;11.654;2023-07-24T19:44:25;4.38;;;3.70;;
62509;SDS011;48558;48.242;11.654;2023-07-24T19:48:38;4.50;;;3.40;;
62509;SDS011;48558;48.242;11.654;2023-07-24T19:52:50;6.25;;;4.07;;
62509;SDS011;48558;48.242;11.654;2023-07-24T19:57:03;4.25;;;3.17;;
62509;SDS011;48558;48.242;11.654;2023-07-24T20:01:16;5.53;;;3.50;;
62509;SDS011;48558;48.242;11.654;2023-07-24T20:05:29;4.07;;;3.47;;
62509;SDS011;48558;48.242;11.654;2023-07-24T20:09:41;5.90;;;3.67;;
62509;SDS011;48558;48.242;11.654;2023-07-24T20:13:54;4.57;;;3.40;;
62509;SDS011;48558;48.242;11.654;2023-07-24T20:18:07;4.82;;;3.65;;
62509;SDS011;48558;48.242;11.654;2023-07-24T20:22:19;5.07;;;3.55;;
62509;SDS011;48558;48.242;11.654;2023-07-24T20:26:32;7.68;;;3.88;;
62509;SDS011;48558;48.242;11.654;2023-07-24T20:30:45;6.03;;;4.13;;
62509;SDS011;48558;48.242;11.654;2023-07-24T20:34:57;4.88;;;4.15;;
62509;SDS011;48558;48.242;11.654;2023-07-24T20:39:10;6.88;;;3.95;;
62509;SDS011;48558;48.242;11.654;2023-07-24T20:43:29;4.30;;;3.78;;
62509;SDS011;48558;48.242;11.654;2023-07-24T20:47:42;7.05;;;3.70;;
62509;SDS011;48558;48.242;11.654;2023-07-24T20:51:54;4.60;;;3.58;;
62509;SDS011;48558;48.242;11.654;2023-07-24T20:56:07;4.57;;;3.92;;
62509;SDS011;48558;48.242;11.654;2023-07-24T21:00:19;8.43;;;3.75;;
62509;SDS011;48558;48.242;11.654;2023-07-24T21:04:32;4.43;;;3.63;;
62509;SDS011;48558;48.242;11.654;2023-07-24T21:08:45;4.70;;;3.72;;
62509;SDS011;48558;48.242;11.654;2023-07-24T21:12:57;5.13;;;4.47;;
62509;SDS011;48558;48.242;11.654;2023-07-24T21:17:10;3.45;;;2.97;;
62509;SDS011;48558;48.242;11.654;2023-07-24T21:21:23;6.20;;;3.58;;
62509;SDS011;48558;48.242;11.654;2023-07-24T21:25:36;6.35;;;3.97;;
62509;SDS011;48558;48.242;11.654;2023-07-24T21:29:51;5.20;;;3.22;;
62509;SDS011;48558;48.242;11.654;2023-07-24T21:34:04;3.75;;;3.10;;
62509;SDS011;48558;48.242;11.654;2023-07-24T21:38:16;4.18;;;2.92;;
62509;SDS011;48558;48.242;11.654;2023-07-24T21:42:29;4.30;;;3.20;;
62509;SDS011;48558;48.242;11.654;2023-07-24T21:46:41;4.15;;;2.80;;
62509;SDS011;48558;48.242;11.654;2023-07-24T21:50:54;3.80;;;3.40;;
62509;SDS011;48558;48.242;11.654;2023-07-24T21:55:07;3.33;;;2.63;;
62509;SDS011;48558;48.242;11.654;2023-07-24T21:59:20;4.82;;;2.33;;
62509;SDS011;48558;48.242;11.654;2023-07-24T22:03:32;3.75;;;2.95;;
62509;SDS011;48558;48.242;11.654;2023-07-24T22:07:45;4.25;;;2.65;;
62509;SDS011;48558;48.242;11.654;2023-07-24T22:11:57;4.38;;;2.70;;
62509;SDS011;48558;48.242;11.654;2023-07-24T22:16:10;3.92;;;3.17;;
62509;SDS011;48558;48.242;11.654;2023-07-24T22:20:23;4.35;;;2.97;;
62509;SDS011;48558;48.242;11.654;2023-07-24T22:24:51;2.58;;;2.38;;
62509;SDS011;48558;48.242;11.654;2023-07-24T22:29:04;3.67;;;2.80;;
62509;SDS011;48558;48.242;11.654;2023-07-24T22:33:17;3.03;;;2.72;;
62509;SDS011;48558;48.242;11.654;2023-07-24T22:37:29;4.70;;;2.88;;
62509;SDS011;48558;48.242;11.654;2023-07-24T22:41:43;3.22;;;2.60;;
62509;SDS011;48558;48.242;11.654;2023-07-24T22:45:56;3.08;;;2.60;;
62509;SDS011;48558;48.242;11.654;2023-07-24T22:50:08;5.97;;;2.75;;
62509;SDS011;48558;48.242;11.654;2023-07-24T22:54:21;3.60;;;3.13;;
62509;SDS011;48558;48.242;11.654;2023-07-24T23:03:14;5.30;;;2.80;;
62509;SDS011;48558;48.242;11.654;2023-07-24T23:07:27;2.72;;;2.50;;
62509;SDS011;48558;48.242;11.654;2023-07-24T23:11:40;4.55;;;3.38;;
62509;SDS011;48558;48.242;11.654;2023-07-24T23:16:11;3.05;;;2.78;;
62509;SDS011;48558;48.242;11.654;2023-07-24T23:20:39;10.15;;;3.08;;
62509;SDS011;48558;48.242;11.654;2023-07-24T23:24:51;3.83;;;2.70;;
62509;SDS011;48558;48.242;11.654;2023-07-24T23:29:04;4.47;;;2.97;;
62509;SDS011;48558;48.242;11.654;2023-07-24T23:33:17;5.60;;;2.95;;
62509;SDS011;48558;48.242;11.654;2023-07-24T23:37:29;2.50;;;2.30;;
62509;SDS011;48558;48.242;11.654;2023-07-24T23:41:42;7.00;;;2.90;;
62509;SDS011;48558;48.242;11.654;2023-07-24T23:45:54;7.25;;;2.95;;
62509;SDS011;48558;48.242;11.654;2023-07-24T23:50:07;4.97;;;3.15;;
62509;SDS011;48558;48.242;11.654;2023-07-24T23:54:20;3.30;;;3.00;;
62509;SDS011;48558;48.242;11.654;2023-07-24T23:58:33;3.28;;;2.67;;
